sensor_id;sensor_type;location;lat;lon;timestamp;pressure;altitude;pressure_sealevel;temperature;humidity
52137;BME280;69622;49.570;10.986;2023-04-29T00:02:08;97948.09;;;11.43;100.00
52137;BME280;69622;49.570;10.986;2023-04-29T00:05:10;97944.81;;;11.41;100.00
52137;BME280;69622;49.570;10.986;2023-04-29T00:08:11;97937.22;;;11.59;100.00
52137;BME280;69622;49.570;10.986;2023-04-29T00:11:13;97937.91;;;11.61;100.00
52137;BME280;69622;49.570;10.986;2023-04-29T00:14:14;97939.97;;;11.67;100.00
52137;BME280;69622;49.570;10.986;2023-04-29T00:17:17;97947.41;;;11.72;100.00
52137;BME280;69622;49.570;10.986;2023-04-29T00:20:18;97951.72;;;11.61;100.00
52137;BME280;69622;49.570;10.986;2023-04-29T00:23:20;97947.78;;;11.67;100.00
52137;BME280;69622;49.570;10.986;2023-04-29T00:26:21;97955.25;;;11.81;100.00
52137;BME280;69622;49.570;10.986;2023-04-29T00:29:23;97946.19;;;11.45;100.00
52137;BME280;69622;49.570;10.986;2023-04-29T00:32:24;97948.72;;;11.56;100.00
52137;BME280;69622;49.570;10.986;2023-04-29T00:35:25;97944.19;;;11.58;100.00
52137;BME280;69622;49.570;10.986;2023-04-29T00:38:27;97949.13;;;11.61;100.00
52137;BME280;69622;49.570;10.986;2023-04-29T00:41:29;97939.28;;;11.65;100.00
52137;BME280;69622;49.570;10.986;2023-04-29T00:44:31;97945.16;;;11.67;100.00
52137;BME280;69622;49.570;10.986;2023-04-29T00:47:33;97940.38;;;11.62;100.00
52137;BME280;69622;49.570;10.986;2023-04-29T00:50:34;97940.38;;;11.32;100.00
52137;BME280;69622;49.570;10.986;2023-04-29T00:53:38;97938.97;;;11.28;100.00
52137;BME280;69622;49.570;10.986;2023-04-29T00:56:39;97943.78;;;11.32;100.00
52137;BME280;69622;49.570;10.986;2023-04-29T00:59:43;97944.88;;;11.30;100.00
52137;BME280;69622;49.570;10.986;2023-04-29T01:02:46;97943.53;;;11.35;100.00
52137;BME280;69622;49.570;10.986;2023-04-29T01:05:57;97945.63;;;11.42;100.00
52137;BME280;69622;49.570;10.986;2023-04-29T01:09:17;97949.53;;;11.26;100.00
52137;BME280;69622;49.570;10.986;2023-04-29T01:12:45;97949.25;;;11.29;100.00
52137;BME280;69622;49.570;10.986;2023-04-29T01:16:01;97955.97;;;11.32;100.00
52137;BME280;69622;49.570;10.986;2023-04-29T01:19:30;97948.28;;;11.21;100.00
52137;BME280;69622;49.570;10.986;2023-04-29T01:22:32;97946.59;;;11.20;100.00
52137;BME280;69622;49.570;10.986;2023-04-29T01:25:34;97948.00;;;10.82;100.00
52137;BME280;69622;49.570;10.986;2023-04-29T01:32:03;97944.00;;;10.99;100.00
52137;BME280;69622;49.570;10.986;2023-04-29T01:35:22;97948.53;;;10.44;100.00
52137;BME280;69622;49.570;10.986;2023-04-29T01:38:46;97948.47;;;10.55;100.00
52137;BME280;69622;49.570;10.986;2023-04-29T01:42:09;97945.94;;;10.76;100.00
52137;BME280;69622;49.570;10.986;2023-04-29T01:45:15;97945.84;;;10.66;100.00
52137;BME280;69622;49.570;10.986;2023-04-29T01:48:22;97946.84;;;10.54;100.00
52137;BME280;69622;49.570;10.986;2023-04-29T01:51:24;97951.84;;;10.46;100.00
52137;BME280;69622;49.570;10.986;2023-04-29T01:54:25;97939.41;;;10.49;100.00
52137;BME280;69622;49.570;10.986;2023-04-29T01:57:27;97952.00;;;10.65;100.00
52137;BME280;69622;49.570;10.986;2023-04-29T02:00:28;97946.63;;;10.78;100.00
52137;BME280;69622;49.570;10.986;2023-04-29T02:03:30;97943.38;;;10.86;100.00
52137;BME280;69622;49.570;10.986;2023-04-29T02:06:31;97951.44;;;10.83;100.00
52137;BME280;69622;49.570;10.986;2023-04-29T02:09:33;97952.94;;;10.85;100.00
52137;BME280;69622;49.570;10.986;2023-04-29T02:12:35;97958.28;;;10.84;100.00
52137;BME280;69622;49.570;10.986;2023-04-29T02:15:36;97953.78;;;10.86;100.00
52137;BME280;69622;49.570;10.986;2023-04-29T02:18:37;97944.00;;;10.99;100.00
52137;BME280;69622;49.570;10.986;2023-04-29T02:21:40;97937.38;;;11.06;100.00
52137;BME280;69622;49.570;10.986;2023-04-29T02:24:42;97947.50;;;10.88;100.00
52137;BME280;69622;49.570;10.986;2023-04-29T02:27:43;97947.44;;;10.78;100.00
52137;BME280;69622;49.570;10.986;2023-04-29T02:30:45;97942.03;;;10.70;100.00
52137;BME280;69622;49.570;10.986;2023-04-29T02:33:47;97948.97;;;10.81;100.00
52137;BME280;69622;49.570;10.986;2023-04-29T02:36:49;97951.56;;;10.81;100.00
52137;BME280;69622;49.570;10.986;2023-04-29T02:39:50;97948.97;;;10.81;100.00
52137;BME280;69622;49.570;10.986;2023-04-29T02:42:52;97959.84;;;10.54;100.00
52137;BME280;69622;49.570;10.986;2023-04-29T02:45:53;97952.09;;;10.43;100.00
52137;BME280;69622;49.570;10.986;2023-04-29T02:48:54;97953.03;;;10.42;100.00
52137;BME280;69622;49.570;10.986;2023-04-29T02:51:56;97953.22;;;10.50;100.00
52137;BME280;69622;49.570;10.986;2023-04-29T02:54:58;97949.78;;;10.61;100.00
52137;BME280;69622;49.570;10.986;2023-04-29T02:58:00;97959.66;;;10.67;100.00
52137;BME280;69622;49.570;10.986;2023-04-29T03:01:01;97957.28;;;10.75;100.00
52137;BME280;69622;49.570;10.986;2023-04-29T03:04:04;97956.31;;;10.76;100.00
52137;BME280;69622;49.570;10.986;2023-04-29T03:07:05;97956.91;;;10.79;100.00
52137;BME280;69622;49.570;10.986;2023-04-29T03:10:08;97955.94;;;10.80;100.00
52137;BME280;69622;49.570;10.986;2023-04-29T03:13:09;97952.78;;;10.77;100.00
52137;BME280;69622;49.570;10.986;2023-04-29T03:16:11;97958.84;;;10.66;100.00
52137;BME280;69622;49.570;10.986;2023-04-29T03:19:17;97969.75;;;10.60;100.00
52137;BME280;69622;49.570;10.986;2023-04-29T03:22:18;97955.94;;;10.60;100.00
52137;BME280;69622;49.570;10.986;2023-04-29T03:25:19;97965.38;;;10.61;100.00
52137;BME280;69622;49.570;10.986;2023-04-29T03:28:21;97956.94;;;10.68;100.00
52137;BME280;69622;49.570;10.986;2023-04-29T03:31:22;97964.69;;;10.79;100.00
52137;BME280;69622;49.570;10.986;2023-04-29T03:34:24;97961.53;;;10.76;100.00
52137;BME280;69622;49.570;10.986;2023-04-29T03:37:26;97964.69;;;10.79;100.00
52137;BME280;69622;49.570;10.986;2023-04-29T03:40:27;97970.06;;;10.67;100.00
52137;BME280;69622;49.570;10.986;2023-04-29T03:43:28;97971.28;;;10.63;100.00
52137;BME280;69622;49.570;10.986;2023-04-29T03:46:30;97969.97;;;10.57;100.00
52137;BME280;69622;49.570;10.986;2023-04-29T03:49:31;97967.81;;;10.41;100.00
52137;BME280;69622;49.570;10.986;2023-04-29T03:52:33;97969.56;;;10.41;100.00
52137;BME280;69622;49.570;10.986;2023-04-29T03:55:36;97976.75;;;10.48;100.00
52137;BME280;69622;49.570;10.986;2023-04-29T03:58:37;97976.94;;;10.57;100.00
52137;BME280;69622;49.570;10.986;2023-04-29T04:01:39;97976.47;;;10.63;100.00
52137;BME280;69622;49.570;10.986;2023-04-29T04:04:40;97974.03;;;10.50;100.00
52137;BME280;69622;49.570;10.986;2023-04-29T04:07:42;97977.00;;;10.45;100.00
52137;BME280;69622;49.570;10.986;2023-04-29T04:10:44;97985.91;;;10.09;100.00
52137;BME280;69622;49.570;10.986;2023-04-29T04:13:45;97997.13;;;10.32;100.00
52137;BME280;69622;49.570;10.986;2023-04-29T04:16:46;97997.00;;;10.23;100.00
52137;BME280;69622;49.570;10.986;2023-04-29T04:19:50;98003.03;;;10.23;100.00
52137;BME280;69622;49.570;10.986;2023-04-29T04:22:52;97999.63;;;10.23;100.00
52137;BME280;69622;49.570;10.986;2023-04-29T04:25:55;98004.22;;;10.30;100.00
52137;BME280;69622;49.570;10.986;2023-04-29T04:28:56;98012.59;;;10.23;100.00
52137;BME280;69622;49.570;10.986;2023-04-29T04:31:57;98020.41;;;10.11;100.00
52137;BME280;69622;49.570;10.986;2023-04-29T04:34:59;98013.56;;;10.22;100.00
52137;BME280;69622;49.570;10.986;2023-04-29T04:38:00;98014.84;;;10.16;100.00
52137;BME280;69622;49.570;10.986;2023-04-29T04:41:05;98015.34;;;9.99;100.00
52137;BME280;69622;49.570;10.986;2023-04-29T04:44:07;98017.81;;;10.11;100.00
52137;BME280;69622;49.570;10.986;2023-04-29T04:47:08;98024.31;;;9.72;100.00
52137;BME280;69622;49.570;10.986;2023-04-29T04:50:09;98019.44;;;9.56;100.00
52137;BME280;69622;49.570;10.986;2023-04-29T04:53:11;98012.84;;;9.97;100.00
52137;BME280;69622;49.570;10.986;2023-04-29T04:56:12;98020.28;;;9.68;100.00
52137;BME280;69622;49.570;10.986;2023-04-29T04:59:13;98026.78;;;9.96;100.00
52137;BME280;69622;49.570;10.986;2023-04-29T05:02:15;98032.56;;;10.00;100.00
52137;BME280;69622;49.570;10.986;2023-04-29T05:05:16;98026.88;;;10.17;100.00
52137;BME280;69622;49.570;10.986;2023-04-29T05:08:18;98028.81;;;10.26;100.00
52137;BME280;69622;49.570;10.986;2023-04-29T05:11:20;98037.06;;;10.31;100.00
52137;BME280;69622;49.570;10.986;2023-04-29T05:14:22;98039.78;;;10.30;100.00
52137;BME280;69622;49.570;10.986;2023-04-29T05:17:23;98041.19;;;10.23;100.00
52137;BME280;69622;49.570;10.986;2023-04-29T05:20:25;98031.97;;;10.07;100.00
52137;BME280;69622;49.570;10.986;2023-04-29T05:23:26;98026.75;;;10.18;100.00
52137;BME280;69622;49.570;10.986;2023-04-29T05:26:28;98029.63;;;10.27;100.00
52137;BME280;69622;49.570;10.986;2023-04-29T05:29:29;98039.06;;;10.28;100.00
52137;BME280;69622;49.570;10.986;2023-04-29T05:32:31;98037.13;;;10.41;100.00
52137;BME280;69622;49.570;10.986;2023-04-29T05:35:32;98042.94;;;10.44;100.00
52137;BME280;69622;49.570;10.986;2023-04-29T05:38:34;98046.81;;;10.50;100.00
52137;BME280;69622;49.570;10.986;2023-04-29T05:41:35;98050.03;;;10.31;100.00
52137;BME280;69622;49.570;10.986;2023-04-29T05:44:36;98053.78;;;10.61;100.00
52137;BME280;69622;49.570;10.986;2023-04-29T05:47:38;98057.66;;;10.55;100.00
52137;BME280;69622;49.570;10.986;2023-04-29T05:50:39;98054.72;;;10.48;100.00
52137;BME280;69622;49.570;10.986;2023-04-29T05:53:41;98060.50;;;10.52;100.00
52137;BME280;69622;49.570;10.986;2023-04-29T05:56:43;98057.31;;;10.60;100.00
52137;BME280;69622;49.570;10.986;2023-04-29T05:59:44;98059.41;;;10.77;100.00
52137;BME280;69622;49.570;10.986;2023-04-29T06:02:46;98061.16;;;10.76;100.00
52137;BME280;69622;49.570;10.986;2023-04-29T06:05:59;98064.44;;;10.90;100.00
52137;BME280;69622;49.570;10.986;2023-04-29T06:09:01;98071.94;;;11.04;100.00
52137;BME280;69622;49.570;10.986;2023-04-29T06:12:04;98081.22;;;11.18;100.00
52137;BME280;69622;49.570;10.986;2023-04-29T06:15:06;98082.88;;;11.19;100.00
52137;BME280;69622;49.570;10.986;2023-04-29T06:18:08;98083.13;;;11.16;100.00
52137;BME280;69622;49.570;10.986;2023-04-29T06:21:09;98089.66;;;10.78;100.00
52137;BME280;69622;49.570;10.986;2023-04-29T06:24:10;98088.50;;;11.03;100.00
52137;BME280;69622;49.570;10.986;2023-04-29T06:27:12;98086.38;;;11.29;100.00
52137;BME280;69622;49.570;10.986;2023-04-29T06:30:13;98099.53;;;11.48;100.00
52137;BME280;69622;49.570;10.986;2023-04-29T06:33:15;98102.22;;;11.37;100.00
52137;BME280;69622;49.570;10.986;2023-04-29T06:36:16;98106.97;;;11.53;100.00
52137;BME280;69622;49.570;10.986;2023-04-29T06:39:17;98103.84;;;11.59;100.00
52137;BME280;69622;49.570;10.986;2023-04-29T06:42:19;98108.97;;;11.49;100.00
52137;BME280;69622;49.570;10.986;2023-04-29T06:45:20;98106.16;;;11.52;100.00
52137;BME280;69622;49.570;10.986;2023-04-29T06:48:23;98109.84;;;11.70;100.00
52137;BME280;69622;49.570;10.986;2023-04-29T06:51:24;98105.66;;;11.79;100.00
52137;BME280;69622;49.570;10.986;2023-04-29T06:54:25;98109.63;;;11.83;100.00
52137;BME280;69622;49.570;10.986;2023-04-29T06:57:28;98113.56;;;11.98;100.00
52137;BME280;69622;49.570;10.986;2023-04-29T07:00:30;98114.03;;;12.04;100.00
52137;BME280;69622;49.570;10.986;2023-04-29T07:03:32;98114.16;;;12.02;100.00
52137;BME280;69622;49.570;10.986;2023-04-29T07:06:33;98122.13;;;12.10;100.00
52137;BME280;69622;49.570;10.986;2023-04-29T07:09:34;98124.72;;;12.01;100.00
52137;BME280;69622;49.570;10.986;2023-04-29T07:12:36;98129.34;;;12.27;100.00
52137;BME280;69622;49.570;10.986;2023-04-29T07:15:37;98129.81;;;12.12;100.00
52137;BME280;69622;49.570;10.986;2023-04-29T07:18:39;98134.66;;;12.16;100.00
52137;BME280;69622;49.570;10.986;2023-04-29T07:21:40;98136.25;;;12.08;100.00
52137;BME280;69622;49.570;10.986;2023-04-29T07:24:41;98130.69;;;12.22;100.00
52137;BME280;69622;49.570;10.986;2023-04-29T07:27:43;98134.25;;;12.21;100.00
52137;BME280;69622;49.570;10.986;2023-04-29T07:30:44;98135.03;;;12.42;100.00
52137;BME280;69622;49.570;10.986;2023-04-29T07:33:46;98139.94;;;12.36;100.00
52137;BME280;69622;49.570;10.986;2023-04-29T07:36:47;98138.69;;;12.30;100.00
52137;BME280;69622;49.570;10.986;2023-04-29T07:39:49;98140.09;;;12.44;100.00
52137;BME280;69622;49.570;10.986;2023-04-29T07:42:51;98143.84;;;12.51;100.00
52137;BME280;69622;49.570;10.986;2023-04-29T07:45:52;98141.25;;;12.60;100.00
52137;BME280;69622;49.570;10.986;2023-04-29T07:48:54;98145.78;;;12.58;100.00
52137;BME280;69622;49.570;10.986;2023-04-29T07:51:56;98151.53;;;12.52;100.00
52137;BME280;69622;49.570;10.986;2023-04-29T07:54:57;98156.41;;;12.36;100.00
52137;BME280;69622;49.570;10.986;2023-04-29T07:57:59;98164.03;;;12.49;100.00
52137;BME280;69622;49.570;10.986;2023-04-29T08:01:10;98152.63;;;12.50;100.00
52137;BME280;69622;49.570;10.986;2023-04-29T08:04:12;98157.03;;;12.59;100.00
52137;BME280;69622;49.570;10.986;2023-04-29T08:07:14;98159.78;;;12.98;100.00
52137;BME280;69622;49.570;10.986;2023-04-29T08:10:16;98161.78;;;12.84;100.00
52137;BME280;69622;49.570;10.986;2023-04-29T08:13:18;98171.38;;;12.74;100.00
52137;BME280;69622;49.570;10.986;2023-04-29T08:16:19;98178.91;;;12.68;100.00
52137;BME280;69622;49.570;10.986;2023-04-29T08:19:22;98172.19;;;12.75;100.00
52137;BME280;69622;49.570;10.986;2023-04-29T08:22:23;98180.16;;;12.73;100.00
52137;BME280;69622;49.570;10.986;2023-04-29T08:25:25;98184.63;;;13.02;100.00
52137;BME280;69622;49.570;10.986;2023-04-29T08:28:27;98188.16;;;12.81;100.00
52137;BME280;69622;49.570;10.986;2023-04-29T08:31:28;98185.03;;;13.07;100.00
52137;BME280;69622;49.570;10.986;2023-04-29T08:34:30;98193.88;;;12.75;100.00
52137;BME280;69622;49.570;10.986;2023-04-29T08:37:32;98194.88;;;12.84;100.00
52137;BME280;69622;49.570;10.986;2023-04-29T08:40:34;98196.81;;;12.92;100.00
52137;BME280;69622;49.570;10.986;2023-04-29T08:43:36;98201.66;;;12.96;100.00
52137;BME280;69622;49.570;10.986;2023-04-29T08:46:38;98209.41;;;13.17;100.00
52137;BME280;69622;49.570;10.986;2023-04-29T08:49:40;98206.88;;;12.96;100.00
52137;BME280;69622;49.570;10.986;2023-04-29T08:52:41;98208.03;;;13.13;100.00
52137;BME280;69622;49.570;10.986;2023-04-29T08:55:47;98207.06;;;12.64;100.00
52137;BME280;69622;49.570;10.986;2023-04-29T08:58:52;98218.00;;;12.58;100.00
52137;BME280;69622;49.570;10.986;2023-04-29T09:01:59;98218.00;;;12.58;100.00
52137;BME280;69622;49.570;10.986;2023-04-29T09:05:07;98231.03;;;12.58;100.00
52137;BME280;69622;49.570;10.986;2023-04-29T09:08:10;98231.56;;;12.82;100.00
52137;BME280;69622;49.570;10.986;2023-04-29T09:11:13;98238.50;;;12.72;100.00
52137;BME280;69622;49.570;10.986;2023-04-29T09:14:14;98234.94;;;12.73;100.00
52137;BME280;69622;49.570;10.986;2023-04-29T09:17:16;98234.53;;;12.68;100.00
52137;BME280;69622;49.570;10.986;2023-04-29T09:20:25;98230.47;;;12.85;100.00
52137;BME280;69622;49.570;10.986;2023-04-29T09:23:36;98237.13;;;13.08;100.00
52137;BME280;69622;49.570;10.986;2023-04-29T09:26:42;98233.19;;;13.24;100.00
52137;BME280;69622;49.570;10.986;2023-04-29T09:29:59;98241.50;;;13.48;100.00
52137;BME280;69622;49.570;10.986;2023-04-29T09:33:19;98238.06;;;13.47;100.00
52137;BME280;69622;49.570;10.986;2023-04-29T09:36:45;98236.00;;;13.41;100.00
52137;BME280;69622;49.570;10.986;2023-04-29T09:39:46;98241.91;;;13.63;100.00
52137;BME280;69622;49.570;10.986;2023-04-29T09:42:48;98240.97;;;13.64;100.00
52137;BME280;69622;49.570;10.986;2023-04-29T09:45:49;98238.88;;;13.48;100.00
52137;BME280;69622;49.570;10.986;2023-04-29T09:48:51;98241.91;;;13.72;100.00
52137;BME280;69622;49.570;10.986;2023-04-29T09:51:57;98241.91;;;13.53;100.00
52137;BME280;69622;49.570;10.986;2023-04-29T09:55:04;98250.47;;;13.74;100.00
52137;BME280;69622;49.570;10.986;2023-04-29T09:58:05;98245.34;;;13.44;100.00
52137;BME280;69622;49.570;10.986;2023-04-29T10:01:07;98246.31;;;13.53;100.00
52137;BME280;69622;49.570;10.986;2023-04-29T10:04:10;98249.91;;;13.61;100.00
52137;BME280;69622;49.570;10.986;2023-04-29T10:07:13;98254.44;;;13.69;100.00
52137;BME280;69622;49.570;10.986;2023-04-29T10:10:15;98257.72;;;14.00;100.00
52137;BME280;69622;49.570;10.986;2023-04-29T10:13:17;98253.22;;;13.73;100.00
52137;BME280;69622;49.570;10.986;2023-04-29T10:16:27;98257.47;;;13.74;100.00
52137;BME280;69622;49.570;10.986;2023-04-29T10:19:33;98256.78;;;13.82;100.00
52137;BME280;69622;49.570;10.986;2023-04-29T10:22:48;98258.44;;;13.83;100.00
52137;BME280;69622;49.570;10.986;2023-04-29T10:25:51;98256.75;;;14.01;100.00
52137;BME280;69622;49.570;10.986;2023-04-29T10:28:55;98260.47;;;13.98;100.00
52137;BME280;69622;49.570;10.986;2023-04-29T10:31:57;98265.88;;;14.06;100.00
52137;BME280;69622;49.570;10.986;2023-04-29T10:34:59;98257.44;;;14.03;100.00
52137;BME280;69622;49.570;10.986;2023-04-29T10:38:07;98269.00;;;14.10;100.00
52137;BME280;69622;49.570;10.986;2023-04-29T10:41:18;98260.34;;;13.71;98.51
52137;BME280;69622;49.570;10.986;2023-04-29T10:44:20;98256.50;;;13.65;100.00
52137;BME280;69622;49.570;10.986;2023-04-29T10:47:22;98256.78;;;13.82;100.00
52137;BME280;69622;49.570;10.986;2023-04-29T10:50:33;98256.38;;;14.05;100.00
52137;BME280;69622;49.570;10.986;2023-04-29T10:53:35;98261.75;;;13.75;100.00
52137;BME280;69622;49.570;10.986;2023-04-29T10:56:56;98267.50;;;13.69;100.00
52137;BME280;69622;49.570;10.986;2023-04-29T10:59:58;98266.38;;;13.71;100.00
52137;BME280;69622;49.570;10.986;2023-04-29T11:03:01;98258.72;;;13.79;100.00
52137;BME280;69622;49.570;10.986;2023-04-29T11:06:07;98262.00;;;13.82;100.00
52137;BME280;69622;49.570;10.986;2023-04-29T11:12:19;98259.66;;;13.88;100.00
52137;BME280;69622;49.570;10.986;2023-04-29T11:15:20;98262.28;;;13.98;100.00
52137;BME280;69622;49.570;10.986;2023-04-29T11:18:22;98269.44;;;13.76;100.00
52137;BME280;69622;49.570;10.986;2023-04-29T11:21:23;98262.56;;;13.75;98.26
52137;BME280;69622;49.570;10.986;2023-04-29T11:24:25;98270.41;;;13.95;97.35
52137;BME280;69622;49.570;10.986;2023-04-29T11:27:32;98274.25;;;13.91;97.26
52137;BME280;69622;49.570;10.986;2023-04-29T11:30:34;98275.22;;;13.90;99.70
52137;BME280;69622;49.570;10.986;2023-04-29T11:33:36;98275.75;;;13.84;100.00
52137;BME280;69622;49.570;10.986;2023-04-29T11:36:38;98280.44;;;13.80;100.00
52137;BME280;69622;49.570;10.986;2023-04-29T11:39:39;98282.91;;;13.82;94.37
52137;BME280;69622;49.570;10.986;2023-04-29T11:42:45;98279.81;;;13.38;91.55
52137;BME280;69622;49.570;10.986;2023-04-29T11:45:47;98285.38;;;13.64;96.06
52137;BME280;69622;49.570;10.986;2023-04-29T11:48:49;98290.88;;;13.61;93.90
52137;BME280;69622;49.570;10.986;2023-04-29T11:51:50;98294.66;;;13.37;96.46
52137;BME280;69622;49.570;10.986;2023-04-29T11:54:51;98303.38;;;13.57;97.89
52137;BME280;69622;49.570;10.986;2023-04-29T11:57:53;98299.28;;;13.24;97.78
52137;BME280;69622;49.570;10.986;2023-04-29T12:00:57;98309.53;;;13.46;96.62
52137;BME280;69622;49.570;10.986;2023-04-29T12:03:59;98307.44;;;13.40;93.79
52137;BME280;69622;49.570;10.986;2023-04-29T12:07:02;98305.16;;;13.47;98.76
52137;BME280;69622;49.570;10.986;2023-04-29T12:10:08;98305.84;;;13.49;97.48
52137;BME280;69622;49.570;10.986;2023-04-29T12:13:11;98302.44;;;13.87;97.39
52137;BME280;69622;49.570;10.986;2023-04-29T12:16:13;98305.19;;;14.15;96.11
52137;BME280;69622;49.570;10.986;2023-04-29T12:19:15;98300.53;;;13.89;95.33
52137;BME280;69622;49.570;10.986;2023-04-29T12:22:18;98305.19;;;13.86;93.57
52137;BME280;69622;49.570;10.986;2023-04-29T12:25:24;98310.00;;;14.00;97.56
52137;BME280;69622;49.570;10.986;2023-04-29T12:28:26;98303.28;;;13.78;93.50
52137;BME280;69622;49.570;10.986;2023-04-29T12:31:32;98312.19;;;13.85;94.40
52137;BME280;69622;49.570;10.986;2023-04-29T12:34:34;98315.22;;;13.71;95.77
52137;BME280;69622;49.570;10.986;2023-04-29T12:37:36;98309.59;;;13.75;96.74
52137;BME280;69622;49.570;10.986;2023-04-29T12:40:37;98311.66;;;14.01;95.57
52137;BME280;69622;49.570;10.986;2023-04-29T12:43:40;98312.09;;;13.96;94.02
52137;BME280;69622;49.570;10.986;2023-04-29T12:46:42;98310.03;;;13.90;93.66
52137;BME280;69622;49.570;10.986;2023-04-29T12:49:44;98308.38;;;13.99;93.44
52137;BME280;69622;49.570;10.986;2023-04-29T12:52:46;98312.63;;;14.00;93.98
52137;BME280;69622;49.570;10.986;2023-04-29T12:55:47;98312.38;;;14.22;94.76
52137;BME280;69622;49.570;10.986;2023-04-29T12:58:49;98312.75;;;14.27;94.82
52137;BME280;69622;49.570;10.986;2023-04-29T13:01:50;98328.44;;;14.27;85.17
52137;BME280;69622;49.570;10.986;2023-04-29T13:04:52;98320.03;;;13.85;86.72
52137;BME280;69622;49.570;10.986;2023-04-29T13:07:54;98318.94;;;13.88;84.88
52137;BME280;69622;49.570;10.986;2023-04-29T13:10:55;98320.75;;;13.97;84.87
52137;BME280;69622;49.570;10.986;2023-04-29T13:13:57;98315.94;;;14.02;87.85
52137;BME280;69622;49.570;10.986;2023-04-29T13:16:58;98318.56;;;14.12;88.64
52137;BME280;69622;49.570;10.986;2023-04-29T13:20:00;98323.66;;;14.23;86.63
52137;BME280;69622;49.570;10.986;2023-04-29T13:23:11;98325.28;;;14.24;81.22
52137;BME280;69622;49.570;10.986;2023-04-29T13:26:12;98319.09;;;14.25;84.48
52137;BME280;69622;49.570;10.986;2023-04-29T13:29:14;98317.03;;;13.99;85.21
52137;BME280;69622;49.570;10.986;2023-04-29T13:32:15;98318.13;;;14.16;85.33
52137;BME280;69622;49.570;10.986;2023-04-29T13:35:19;98316.47;;;14.15;85.33
52137;BME280;69622;49.570;10.986;2023-04-29T13:38:20;98321.16;;;14.12;89.60
52137;BME280;69622;49.570;10.986;2023-04-29T13:41:23;98315.41;;;13.89;91.51
52137;BME280;69622;49.570;10.986;2023-04-29T13:44:26;98321.44;;;13.89;89.85
52137;BME280;69622;49.570;10.986;2023-04-29T13:47:47;98323.75;;;13.83;88.95
52137;BME280;69622;49.570;10.986;2023-04-29T13:51:05;98322.47;;;13.48;90.82
52137;BME280;69622;49.570;10.986;2023-04-29T13:54:27;98325.41;;;13.74;91.66
52137;BME280;69622;49.570;10.986;2023-04-29T13:57:48;98329.97;;;13.91;91.75
52137;BME280;69622;49.570;10.986;2023-04-29T14:01:10;98330.47;;;13.66;91.45
52137;BME280;69622;49.570;10.986;2023-04-29T14:04:32;98328.44;;;13.79;91.93
52137;BME280;69622;49.570;10.986;2023-04-29T14:07:33;98336.38;;;13.58;93.49
52137;BME280;69622;49.570;10.986;2023-04-29T14:10:35;98333.84;;;13.37;94.41
52137;BME280;69622;49.570;10.986;2023-04-29T14:13:37;98331.53;;;13.44;90.46
52137;BME280;69622;49.570;10.986;2023-04-29T14:16:38;98332.00;;;13.59;91.76
52137;BME280;69622;49.570;10.986;2023-04-29T14:19:40;98330.78;;;13.82;91.04
52137;BME280;69622;49.570;10.986;2023-04-29T14:22:41;98328.81;;;13.65;92.69
52137;BME280;69622;49.570;10.986;2023-04-29T14:25:43;98339.00;;;13.58;89.30
52137;BME280;69622;49.570;10.986;2023-04-29T14:28:44;98347.63;;;13.49;89.77
52137;BME280;69622;49.570;10.986;2023-04-29T14:31:45;98350.31;;;13.38;92.20
52137;BME280;69622;49.570;10.986;2023-04-29T14:34:47;98350.19;;;13.30;95.49
52137;BME280;69622;49.570;10.986;2023-04-29T14:37:48;98355.22;;;13.22;98.38
52137;BME280;69622;49.570;10.986;2023-04-29T14:40:50;98354.31;;;13.32;98.93
52137;BME280;69622;49.570;10.986;2023-04-29T14:43:52;98358.03;;;13.39;97.29
52137;BME280;69622;49.570;10.986;2023-04-29T14:46:53;98365.44;;;13.34;96.28
52137;BME280;69622;49.570;10.986;2023-04-29T14:49:55;98364.34;;;13.37;96.67
52137;BME280;69622;49.570;10.986;2023-04-29T14:52:56;98357.34;;;13.37;96.84
52137;BME280;69622;49.570;10.986;2023-04-29T14:55:58;98367.00;;;13.46;97.19
52137;BME280;69622;49.570;10.986;2023-04-29T14:58:59;98371.84;;;13.21;96.68
52137;BME280;69622;49.570;10.986;2023-04-29T15:02:01;98363.22;;;13.09;96.47
52137;BME280;69622;49.570;10.986;2023-04-29T15:05:02;98369.88;;;13.13;94.36
52137;BME280;69622;49.570;10.986;2023-04-29T15:08:05;98374.13;;;13.14;95.69
52137;BME280;69622;49.570;10.986;2023-04-29T15:11:07;98375.75;;;13.26;95.34
52137;BME280;69622;49.570;10.986;2023-04-29T15:14:08;98378.34;;;13.26;93.41
52137;BME280;69622;49.570;10.986;2023-04-29T15:17:09;98369.03;;;13.12;95.44
52137;BME280;69622;49.570;10.986;2023-04-29T15:20:11;98383.94;;;13.22;95.32
52137;BME280;69622;49.570;10.986;2023-04-29T15:23:12;98387.09;;;13.25;95.73
52137;BME280;69622;49.570;10.986;2023-04-29T15:26:14;98392.25;;;13.36;95.37
52137;BME280;69622;49.570;10.986;2023-04-29T15:29:15;98392.97;;;13.17;94.26
52137;BME280;69622;49.570;10.986;2023-04-29T15:32:17;98388.13;;;13.13;94.53
52137;BME280;69622;49.570;10.986;2023-04-29T15:35:18;98395.16;;;13.12;95.26
52137;BME280;69622;49.570;10.986;2023-04-29T15:38:19;98402.09;;;13.02;95.50
52137;BME280;69622;49.570;10.986;2023-04-29T15:41:21;98397.13;;;12.99;95.28
52137;BME280;69622;49.570;10.986;2023-04-29T15:44:23;98403.81;;;12.92;95.19
52137;BME280;69622;49.570;10.986;2023-04-29T15:47:24;98403.66;;;13.14;92.21
52137;BME280;69622;49.570;10.986;2023-04-29T15:50:25;98401.69;;;13.07;92.52
52137;BME280;69622;49.570;10.986;2023-04-29T15:53:27;98412.59;;;12.91;92.22
52137;BME280;69622;49.570;10.986;2023-04-29T15:56:29;98415.75;;;13.15;93.83